sensor_id;sensor_type;location;lat;lon;timestamp;P1;durP1;ratioP1;P2;durP2;ratioP2
14961;SDS011;56489;53.166;10.864;2022-08-01T00:00:04;9.43;;;8.43;;
14961;SDS011;56489;53.166;10.864;2022-08-01T00:02:34;9.23;;;8.32;;
14961;SDS011;56489;53.166;10.864;2022-08-01T00:05:04;8.95;;;7.68;;
14961;SDS011;56489;53.166;10.864;2022-08-01T00:07:32;9.18;;;7.60;;
14961;SDS011;56489;53.166;10.864;2022-08-01T00:10:03;9.50;;;8.60;;
14961;SDS011;56489;53.166;10.864;2022-08-01T00:12:30;8.90;;;8.07;;
14961;SDS011;56489;53.166;10.864;2022-08-01T00:14:57;9.43;;;8.52;;
14961;SDS011;56489;53.166;10.864;2022-08-01T00:17:24;9.43;;;8.43;;
14961;SDS011;56489;53.166;10.864;2022-08-01T00:19:50;9.43;;;8.13;;
14961;SDS011;56489;53.166;10.864;2022-08-01T00:22:17;10.57;;;9.48;;
14961;SDS011;56489;53.166;10.864;2022-08-01T00:24:44;10.10;;;8.95;;
14961;SDS011;56489;53.166;10.864;2022-08-01T00:27:10;10.82;;;9.73;;
14961;SDS011;56489;53.166;10.864;2022-08-01T00:29:37;9.98;;;8.98;;
14961;SDS011;56489;53.166;10.864;2022-08-01T00:32:24;9.82;;;8.93;;
14961;SDS011;56489;53.166;10.864;2022-08-01T00:34:51;10.07;;;9.05;;
14961;SDS011;56489;53.166;10.864;2022-08-01T00:37:17;10.27;;;9.18;;
14961;SDS011;56489;53.166;10.864;2022-08-01T00:39:44;10.00;;;8.73;;
14961;SDS011;56489;53.166;10.864;2022-08-01T00:42:11;10.70;;;9.65;;
14961;SDS011;56489;53.166;10.864;2022-08-01T00:44:38;10.95;;;9.85;;
14961;SDS011;56489;53.166;10.864;2022-08-01T00:47:06;12.43;;;9.93;;
14961;SDS011;56489;53.166;10.864;2022-08-01T00:49:34;11.57;;;10.18;;
14961;SDS011;56489;53.166;10.864;2022-08-01T00:52:02;11.05;;;9.88;;
14961;SDS011;56489;53.166;10.864;2022-08-01T00:54:31;13.70;;;11.55;;
14961;SDS011;56489;53.166;10.864;2022-08-01T00:56:58;13.13;;;11.63;;
14961;SDS011;56489;53.166;10.864;2022-08-01T00:59:25;14.57;;;12.88;;
14961;SDS011;56489;53.166;10.864;2022-08-01T01:01:53;13.18;;;11.88;;
14961;SDS011;56489;53.166;10.864;2022-08-01T01:04:20;11.88;;;10.68;;
14961;SDS011;56489;53.166;10.864;2022-08-01T01:12:21;13.35;;;10.98;;
14961;SDS011;56489;53.166;10.864;2022-08-01T01:17:57;14.85;;;12.77;;
14961;SDS011;56489;53.166;10.864;2022-08-01T01:20:30;13.75;;;11.98;;
14961;SDS011;56489;53.166;10.864;2022-08-01T01:23:06;12.40;;;11.00;;
14961;SDS011;56489;53.166;10.864;2022-08-01T01:28:54;13.70;;;11.25;;
14961;SDS011;56489;53.166;10.864;2022-08-01T01:31:27;15.15;;;12.02;;
14961;SDS011;56489;53.166;10.864;2022-08-01T01:33:55;13.85;;;12.35;;
14961;SDS011;56489;53.166;10.864;2022-08-01T01:36:24;12.70;;;11.25;;
14961;SDS011;56489;53.166;10.864;2022-08-01T01:38:53;14.30;;;12.80;;
14961;SDS011;56489;53.166;10.864;2022-08-01T01:41:20;14.05;;;12.60;;
14961;SDS011;56489;53.166;10.864;2022-08-01T01:43:48;12.80;;;11.52;;
14961;SDS011;56489;53.166;10.864;2022-08-01T01:46:17;14.27;;;12.25;;
14961;SDS011;56489;53.166;10.864;2022-08-01T01:48:48;14.23;;;12.82;;
14961;SDS011;56489;53.166;10.864;2022-08-01T01:51:16;13.32;;;12.00;;
14961;SDS011;56489;53.166;10.864;2022-08-01T01:53:43;14.15;;;12.65;;
14961;SDS011;56489;53.166;10.864;2022-08-01T01:56:11;16.75;;;13.32;;
14961;SDS011;56489;53.166;10.864;2022-08-01T01:58:42;14.63;;;13.00;;
14961;SDS011;56489;53.166;10.864;2022-08-01T02:01:10;16.30;;;14.30;;
14961;SDS011;56489;53.166;10.864;2022-08-01T02:03:40;14.90;;;13.50;;
14961;SDS011;56489;53.166;10.864;2022-08-01T02:06:09;15.60;;;13.90;;
14961;SDS011;56489;53.166;10.864;2022-08-01T02:08:39;14.98;;;13.13;;
14961;SDS011;56489;53.166;10.864;2022-08-01T02:11:08;14.48;;;13.05;;
14961;SDS011;56489;53.166;10.864;2022-08-01T02:13:44;14.60;;;13.00;;
14961;SDS011;56489;53.166;10.864;2022-08-01T02:16:21;13.70;;;11.68;;
14961;SDS011;56489;53.166;10.864;2022-08-01T02:18:50;11.68;;;10.48;;
14961;SDS011;56489;53.166;10.864;2022-08-01T02:21:19;15.18;;;12.65;;
14961;SDS011;56489;53.166;10.864;2022-08-01T02:23:51;13.77;;;12.32;;
14961;SDS011;56489;53.166;10.864;2022-08-01T02:26:18;13.75;;;12.13;;
14961;SDS011;56489;53.166;10.864;2022-08-01T02:28:47;13.13;;;11.82;;
14961;SDS011;56489;53.166;10.864;2022-08-01T02:31:20;14.32;;;12.18;;
14961;SDS011;56489;53.166;10.864;2022-08-01T02:33:54;12.43;;;11.23;;
14961;SDS011;56489;53.166;10.864;2022-08-01T02:36:30;13.73;;;11.55;;
14961;SDS011;56489;53.166;10.864;2022-08-01T02:39:00;14.25;;;12.75;;
14961;SDS011;56489;53.166;10.864;2022-08-01T02:41:32;15.23;;;12.48;;
14961;SDS011;56489;53.166;10.864;2022-08-01T02:44:02;13.85;;;11.57;;
14961;SDS011;56489;53.166;10.864;2022-08-01T02:46:33;13.73;;;11.98;;
14961;SDS011;56489;53.166;10.864;2022-08-01T02:49:13;15.32;;;13.15;;
14961;SDS011;56489;53.166;10.864;2022-08-01T02:51:40;13.98;;;12.45;;
14961;SDS011;56489;53.166;10.864;2022-08-01T02:54:09;12.98;;;11.55;;
14961;SDS011;56489;53.166;10.864;2022-08-01T02:56:37;13.52;;;11.75;;
14961;SDS011;56489;53.166;10.864;2022-08-01T02:59:07;14.50;;;11.40;;
14961;SDS011;56489;53.166;10.864;2022-08-01T03:01:39;12.60;;;11.02;;
14961;SDS011;56489;53.166;10.864;2022-08-01T03:04:08;12.48;;;10.80;;
14961;SDS011;56489;53.166;10.864;2022-08-01T03:06:36;11.73;;;10.48;;
14961;SDS011;56489;53.166;10.864;2022-08-01T03:09:05;11.35;;;10.02;;
14961;SDS011;56489;53.166;10.864;2022-08-01T03:11:34;10.70;;;9.48;;
14961;SDS011;56489;53.166;10.864;2022-08-01T03:14:04;10.82;;;9.70;;
14961;SDS011;56489;53.166;10.864;2022-08-01T03:16:33;10.10;;;9.05;;
14961;SDS011;56489;53.166;10.864;2022-08-01T03:19:03;12.68;;;9.70;;
14961;SDS011;56489;53.166;10.864;2022-08-01T03:21:33;10.27;;;8.65;;
14961;SDS011;56489;53.166;10.864;2022-08-01T03:24:00;8.82;;;7.82;;
14961;SDS011;56489;53.166;10.864;2022-08-01T03:26:31;10.40;;;9.30;;
14961;SDS011;56489;53.166;10.864;2022-08-01T03:29:04;9.32;;;8.43;;
14961;SDS011;56489;53.166;10.864;2022-08-01T03:31:34;11.60;;;9.05;;
14961;SDS011;56489;53.166;10.864;2022-08-01T03:34:02;9.40;;;8.43;;
14961;SDS011;56489;53.166;10.864;2022-08-01T03:36:31;7.85;;;7.10;;
14961;SDS011;56489;53.166;10.864;2022-08-01T03:39:01;9.48;;;6.70;;
14961;SDS011;56489;53.166;10.864;2022-08-01T03:41:37;9.63;;;7.18;;
14961;SDS011;56489;53.166;10.864;2022-08-01T03:44:16;8.93;;;8.07;;
14961;SDS011;56489;53.166;10.864;2022-08-01T03:46:47;9.07;;;8.18;;
14961;SDS011;56489;53.166;10.864;2022-08-01T03:49:32;7.90;;;7.13;;
14961;SDS011;56489;53.166;10.864;2022-08-01T03:52:02;9.85;;;8.70;;
14961;SDS011;56489;53.166;10.864;2022-08-01T03:54:34;10.93;;;9.75;;
14961;SDS011;56489;53.166;10.864;2022-08-01T03:57:04;10.27;;;8.88;;
14961;SDS011;56489;53.166;10.864;2022-08-01T03:59:32;10.57;;;9.50;;
14961;SDS011;56489;53.166;10.864;2022-08-01T04:02:00;11.93;;;10.73;;
14961;SDS011;56489;53.166;10.864;2022-08-01T04:04:28;10.27;;;9.02;;
14961;SDS011;56489;53.166;10.864;2022-08-01T04:06:54;11.38;;;10.27;;
14961;SDS011;56489;53.166;10.864;2022-08-01T04:09:21;11.57;;;10.30;;
14961;SDS011;56489;53.166;10.864;2022-08-01T04:11:48;12.75;;;11.38;;
14961;SDS011;56489;53.166;10.864;2022-08-01T04:14:15;12.75;;;11.43;;
14961;SDS011;56489;53.166;10.864;2022-08-01T04:16:42;10.85;;;9.75;;
14961;SDS011;56489;53.166;10.864;2022-08-01T04:19:09;11.90;;;10.55;;
14961;SDS011;56489;53.166;10.864;2022-08-01T04:21:36;12.25;;;11.05;;
14961;SDS011;56489;53.166;10.864;2022-08-01T04:24:08;13.52;;;11.27;;
14961;SDS011;56489;53.166;10.864;2022-08-01T04:26:39;14.52;;;12.02;;
14961;SDS011;56489;53.166;10.864;2022-08-01T04:29:07;13.68;;;12.27;;
14961;SDS011;56489;53.166;10.864;2022-08-01T04:31:35;12.77;;;11.50;;
14961;SDS011;56489;53.166;10.864;2022-08-01T04:34:05;12.88;;;11.57;;
14961;SDS011;56489;53.166;10.864;2022-08-01T04:36:33;12.13;;;10.75;;
14961;SDS011;56489;53.166;10.864;2022-08-01T04:39:03;11.18;;;10.07;;
14961;SDS011;56489;53.166;10.864;2022-08-01T04:41:31;12.80;;;11.45;;
14961;SDS011;56489;53.166;10.864;2022-08-01T04:43:59;13.52;;;11.18;;
14961;SDS011;56489;53.166;10.864;2022-08-01T04:46:26;12.70;;;11.40;;
14961;SDS011;56489;53.166;10.864;2022-08-01T04:48:54;12.15;;;10.85;;
14961;SDS011;56489;53.166;10.864;2022-08-01T04:51:22;11.60;;;10.43;;
14961;SDS011;56489;53.166;10.864;2022-08-01T04:53:49;12.57;;;11.38;;
14961;SDS011;56489;53.166;10.864;2022-08-01T04:56:17;13.38;;;10.50;;
14961;SDS011;56489;53.166;10.864;2022-08-01T04:58:46;11.65;;;10.43;;
14961;SDS011;56489;53.166;10.864;2022-08-01T05:01:13;11.50;;;10.40;;
14961;SDS011;56489;53.166;10.864;2022-08-01T05:03:40;11.27;;;10.18;;
14961;SDS011;56489;53.166;10.864;2022-08-01T05:06:07;11.02;;;9.93;;
14961;SDS011;56489;53.166;10.864;2022-08-01T05:08:34;10.15;;;9.15;;
14961;SDS011;56489;53.166;10.864;2022-08-01T05:11:02;10.18;;;9.18;;
14961;SDS011;56489;53.166;10.864;2022-08-01T05:13:28;10.63;;;9.50;;
14961;SDS011;56489;53.166;10.864;2022-08-01T05:15:55;11.52;;;9.90;;
14961;SDS011;56489;53.166;10.864;2022-08-01T05:18:21;10.25;;;9.25;;
14961;SDS011;56489;53.166;10.864;2022-08-01T05:20:53;10.35;;;9.32;;
14961;SDS011;56489;53.166;10.864;2022-08-01T05:23:20;11.45;;;9.88;;
14961;SDS011;56489;53.166;10.864;2022-08-01T05:26:07;11.05;;;9.75;;
14961;SDS011;56489;53.166;10.864;2022-08-01T05:28:35;10.35;;;9.30;;
14961;SDS011;56489;53.166;10.864;2022-08-01T05:31:02;10.45;;;9.48;;
14961;SDS011;56489;53.166;10.864;2022-08-01T05:33:29;11.15;;;10.05;;
14961;SDS011;56489;53.166;10.864;2022-08-01T05:35:56;10.90;;;9.77;;
14961;SDS011;56489;53.166;10.864;2022-08-01T05:38:22;9.55;;;8.55;;
14961;SDS011;56489;53.166;10.864;2022-08-01T05:40:49;10.20;;;9.27;;
14961;SDS011;56489;53.166;10.864;2022-08-01T05:43:15;9.45;;;8.55;;
14961;SDS011;56489;53.166;10.864;2022-08-01T05:45:42;11.02;;;8.60;;
14961;SDS011;56489;53.166;10.864;2022-08-01T05:48:10;8.60;;;7.80;;
14961;SDS011;56489;53.166;10.864;2022-08-01T05:50:37;8.20;;;7.40;;
14961;SDS011;56489;53.166;10.864;2022-08-01T05:53:03;7.82;;;7.13;;
14961;SDS011;56489;53.166;10.864;2022-08-01T05:55:30;8.93;;;7.20;;
14961;SDS011;56489;53.166;10.864;2022-08-01T05:57:56;8.30;;;7.60;;
14961;SDS011;56489;53.166;10.864;2022-08-01T06:00:23;7.47;;;6.78;;
14961;SDS011;56489;53.166;10.864;2022-08-01T06:02:50;7.70;;;7.00;;
14961;SDS011;56489;53.166;10.864;2022-08-01T06:05:16;7.32;;;6.40;;
14961;SDS011;56489;53.166;10.864;2022-08-01T06:07:43;6.57;;;6.03;;
14961;SDS011;56489;53.166;10.864;2022-08-01T06:10:09;5.65;;;5.18;;
14961;SDS011;56489;53.166;10.864;2022-08-01T06:12:36;6.32;;;5.70;;
14961;SDS011;56489;53.166;10.864;2022-08-01T06:15:04;6.10;;;5.60;;
14961;SDS011;56489;53.166;10.864;2022-08-01T06:17:31;6.38;;;5.88;;
14961;SDS011;56489;53.166;10.864;2022-08-01T06:19:58;5.80;;;5.30;;
14961;SDS011;56489;53.166;10.864;2022-08-01T06:22:25;5.85;;;5.25;;
14961;SDS011;56489;53.166;10.864;2022-08-01T06:24:53;5.85;;;5.28;;
14961;SDS011;56489;53.166;10.864;2022-08-01T06:27:19;6.05;;;5.45;;
14961;SDS011;56489;53.166;10.864;2022-08-01T06:29:47;5.20;;;4.57;;
14961;SDS011;56489;53.166;10.864;2022-08-01T06:32:19;5.60;;;5.10;;
14961;SDS011;56489;53.166;10.864;2022-08-01T06:34:53;6.07;;;5.57;;
14961;SDS011;56489;53.166;10.864;2022-08-01T06:37:21;6.63;;;6.03;;
14961;SDS011;56489;53.166;10.864;2022-08-01T06:39:48;5.30;;;4.88;;
14961;SDS011;56489;53.166;10.864;2022-08-01T06:42:15;5.78;;;5.28;;
14961;SDS011;56489;53.166;10.864;2022-08-01T06:44:42;6.03;;;5.53;;
14961;SDS011;56489;53.166;10.864;2022-08-01T06:47:09;5.10;;;4.70;;
14961;SDS011;56489;53.166;10.864;2022-08-01T06:49:35;5.05;;;4.55;;
14961;SDS011;56489;53.166;10.864;2022-08-01T06:52:02;4.07;;;3.70;;
14961;SDS011;56489;53.166;10.864;2022-08-01T06:54:30;4.53;;;4.13;;
14961;SDS011;56489;53.166;10.864;2022-08-01T06:56:57;4.15;;;3.83;;
14961;SDS011;56489;53.166;10.864;2022-08-01T06:59:23;4.22;;;3.92;;
14961;SDS011;56489;53.166;10.864;2022-08-01T07:01:50;4.10;;;3.80;;
14961;SDS011;56489;53.166;10.864;2022-08-01T07:04:17;3.83;;;3.53;;
14961;SDS011;56489;53.166;10.864;2022-08-01T07:06:43;4.57;;;4.25;;
14961;SDS011;56489;53.166;10.864;2022-08-01T07:09:10;3.80;;;3.53;;
14961;SDS011;56489;53.166;10.864;2022-08-01T07:11:40;4.05;;;3.75;;
14961;SDS011;56489;53.166;10.864;2022-08-01T07:14:06;4.82;;;4.43;;
14961;SDS011;56489;53.166;10.864;2022-08-01T07:16:33;4.38;;;4.07;;
14961;SDS011;56489;53.166;10.864;2022-08-01T07:19:00;4.60;;;3.95;;
14961;SDS011;56489;53.166;10.864;2022-08-01T07:21:26;4.50;;;4.20;;
14961;SDS011;56489;53.166;10.864;2022-08-01T07:24:06;4.95;;;4.55;;
14961;SDS011;56489;53.166;10.864;2022-08-01T07:26:39;5.90;;;5.45;;
14961;SDS011;56489;53.166;10.864;2022-08-01T07:29:20;5.65;;;5.15;;
14961;SDS011;56489;53.166;10.864;2022-08-01T07:31:51;4.65;;;4.32;;
14961;SDS011;56489;53.166;10.864;2022-08-01T07:34:19;4.65;;;4.25;;
14961;SDS011;56489;53.166;10.864;2022-08-01T07:36:46;4.00;;;3.70;;
14961;SDS011;56489;53.166;10.864;2022-08-01T07:39:13;3.33;;;3.05;;
14961;SDS011;56489;53.166;10.864;2022-08-01T07:41:39;3.60;;;3.35;;
14961;SDS011;56489;53.166;10.864;2022-08-01T07:44:26;2.78;;;2.50;;
14961;SDS011;56489;53.166;10.864;2022-08-01T07:46:53;4.78;;;2.88;;
14961;SDS011;56489;53.166;10.864;2022-08-01T07:49:20;2.40;;;2.17;;
14961;SDS011;56489;53.166;10.864;2022-08-01T07:51:47;2.30;;;2.20;;
14961;SDS011;56489;53.166;10.864;2022-08-01T07:54:29;1.90;;;1.80;;
14961;SDS011;56489;53.166;10.864;2022-08-01T07:57:00;1.48;;;1.38;;
14961;SDS011;56489;53.166;10.864;2022-08-01T07:59:28;1.35;;;1.27;;
14961;SDS011;56489;53.166;10.864;2022-08-01T08:01:55;1.50;;;1.40;;
14961;SDS011;56489;53.166;10.864;2022-08-01T08:04:22;1.45;;;1.30;;
14961;SDS011;56489;53.166;10.864;2022-08-01T08:06:48;1.20;;;1.10;;
14961;SDS011;56489;53.166;10.864;2022-08-01T08:09:15;1.25;;;0.77;;
14961;SDS011;56489;53.166;10.864;2022-08-01T08:11:43;1.13;;;1.00;;
14961;SDS011;56489;53.166;10.864;2022-08-01T08:14:13;1.00;;;0.77;;
14961;SDS011;56489;53.166;10.864;2022-08-01T08:16:40;1.10;;;1.00;;
14961;SDS011;56489;53.166;10.864;2022-08-01T08:19:06;1.67;;;1.10;;
14961;SDS011;56489;53.166;10.864;2022-08-01T08:21:33;1.83;;;1.40;;
14961;SDS011;56489;53.166;10.864;2022-08-01T08:24:00;1.30;;;1.13;;
14961;SDS011;56489;53.166;10.864;2022-08-01T08:26:52;1.90;;;0.90;;
14961;SDS011;56489;53.166;10.864;2022-08-01T08:29:20;0.90;;;0.90;;
14961;SDS011;56489;53.166;10.864;2022-08-01T08:31:48;1.20;;;1.10;;
14961;SDS011;56489;53.166;10.864;2022-08-01T08:34:18;0.95;;;0.95;;
14961;SDS011;56489;53.166;10.864;2022-08-01T08:36:45;1.83;;;1.23;;
14961;SDS011;56489;53.166;10.864;2022-08-01T08:39:14;1.17;;;1.17;;
14961;SDS011;56489;53.166;10.864;2022-08-01T08:41:45;2.08;;;1.58;;
14961;SDS011;56489;53.166;10.864;2022-08-01T08:44:14;2.65;;;1.35;;
14961;SDS011;56489;53.166;10.864;2022-08-01T08:46:43;1.52;;;1.33;;
14961;SDS011;56489;53.166;10.864;2022-08-01T08:49:11;1.73;;;1.38;;
14961;SDS011;56489;53.166;10.864;2022-08-01T08:51:41;1.77;;;1.67;;
14961;SDS011;56489;53.166;10.864;2022-08-01T08:54:10;1.70;;;1.50;;
14961;SDS011;56489;53.166;10.864;2022-08-01T08:56:38;1.40;;;1.30;;
14961;SDS011;56489;53.166;10.864;2022-08-01T08:59:06;1.75;;;1.65;;
14961;SDS011;56489;53.166;10.864;2022-08-01T09:01:32;1.88;;;1.77;;
14961;SDS011;56489;53.166;10.864;2022-08-01T09:04:01;2.55;;;2.35;;
14961;SDS011;56489;53.166;10.864;2022-08-01T09:06:30;2.47;;;2.28;;
14961;SDS011;56489;53.166;10.864;2022-08-01T09:08:58;2.65;;;2.55;;
14961;SDS011;56489;53.166;10.864;2022-08-01T09:11:25;3.15;;;2.88;;
14961;SDS011;56489;53.166;10.864;2022-08-01T09:16:35;3.72;;;3.45;;
14961;SDS011;56489;53.166;10.864;2022-08-01T09:19:07;3.60;;;3.30;;
14961;SDS011;56489;53.166;10.864;2022-08-01T09:22:00;3.30;;;3.00;;
14961;SDS011;56489;53.166;10.864;2022-08-01T09:24:30;3.13;;;2.90;;
14961;SDS011;56489;53.166;10.864;2022-08-01T09:26:58;3.58;;;3.35;;
14961;SDS011;56489;53.166;10.864;2022-08-01T09:29:29;3.78;;;3.47;;
14961;SDS011;56489;53.166;10.864;2022-08-01T09:32:06;3.15;;;2.95;;
14961;SDS011;56489;53.166;10.864;2022-08-01T09:34:39;3.58;;;3.22;;
14961;SDS011;56489;53.166;10.864;2022-08-01T09:37:06;3.40;;;3.10;;
14961;SDS011;56489;53.166;10.864;2022-08-01T09:39:34;3.25;;;2.95;;
14961;SDS011;56489;53.166;10.864;2022-08-01T09:44:54;3.25;;;2.95;;
14961;SDS011;56489;53.166;10.864;2022-08-01T09:47:21;3.13;;;2.92;;
14961;SDS011;56489;53.166;10.864;2022-08-01T09:49:57;3.10;;;2.90;;
14961;SDS011;56489;53.166;10.864;2022-08-01T09:52:25;3.15;;;2.88;;
14961;SDS011;56489;53.166;10.864;2022-08-01T09:54:58;3.10;;;2.90;;
14961;SDS011;56489;53.166;10.864;2022-08-01T09:57:27;3.75;;;2.83;;
14961;SDS011;56489;53.166;10.864;2022-08-01T09:59:57;3.13;;;2.70;;
14961;SDS011;56489;53.166;10.864;2022-08-01T10:02:34;3.67;;;2.72;;
14961;SDS011;56489;53.166;10.864;2022-08-01T10:05:03;3.22;;;2.88;;
14961;SDS011;56489;53.166;10.864;2022-08-01T10:07:34;2.88;;;2.60;;
14961;SDS011;56489;53.166;10.864;2022-08-01T10:10:13;3.60;;;2.60;;
14961;SDS011;56489;53.166;10.864;2022-08-01T10:12:41;3.63;;;2.67;;
14961;SDS011;56489;53.166;10.864;2022-08-01T10:15:11;3.78;;;2.78;;
14961;SDS011;56489;53.166;10.864;2022-08-01T10:17:47;3.30;;;3.10;;
14961;SDS011;56489;53.166;10.864;2022-08-01T10:20:30;4.93;;;3.03;;
14961;SDS011;56489;53.166;10.864;2022-08-01T10:22:59;4.82;;;3.60;;
14961;SDS011;56489;53.166;10.864;2022-08-01T10:25:36;5.72;;;3.67;;
14961;SDS011;56489;53.166;10.864;2022-08-01T10:28:13;4.00;;;3.72;;
14961;SDS011;56489;53.166;10.864;2022-08-01T10:30:49;3.60;;;3.30;;
14961;SDS011;56489;53.166;10.864;2022-08-01T10:33:18;5.30;;;3.50;;
14961;SDS011;56489;53.166;10.864;2022-08-01T10:36:07;3.00;;;2.80;;
14961;SDS011;56489;53.166;10.864;2022-08-01T10:38:35;5.90;;;4.03;;
14961;SDS011;56489;53.166;10.864;2022-08-01T10:41:03;3.50;;;3.17;;
14961;SDS011;56489;53.166;10.864;2022-08-01T10:43:33;4.18;;;2.90;;
14961;SDS011;56489;53.166;10.864;2022-08-01T10:46:00;5.78;;;3.67;;
14961;SDS011;56489;53.166;10.864;2022-08-01T10:48:29;4.93;;;3.25;;
14961;SDS011;56489;53.166;10.864;2022-08-01T10:51:05;3.85;;;2.83;;
14961;SDS011;56489;53.166;10.864;2022-08-01T10:53:50;4.75;;;2.83;;
14961;SDS011;56489;53.166;10.864;2022-08-01T10:56:21;4.18;;;2.60;;
14961;SDS011;56489;53.166;10.864;2022-08-01T10:59:00;4.43;;;2.33;;
14961;SDS011;56489;53.166;10.864;2022-08-01T11:01:36;3.28;;;2.35;;
14961;SDS011;56489;53.166;10.864;2022-08-01T11:04:11;2.95;;;2.38;;
14961;SDS011;56489;53.166;10.864;2022-08-01T11:06:46;3.33;;;2.33;;
14961;SDS011;56489;53.166;10.864;2022-08-01T11:09:22;4.53;;;2.35;;
14961;SDS011;56489;53.166;10.864;2022-08-01T11:12:10;5.00;;;2.38;;
14961;SDS011;56489;53.166;10.864;2022-08-01T11:20:54;4.80;;;2.05;;
14961;SDS011;56489;53.166;10.864;2022-08-01T11:28:24;3.58;;;2.00;;
14961;SDS011;56489;53.166;10.864;2022-08-01T11:44:05;3.88;;;1.80;;
14961;SDS011;56489;53.166;10.864;2022-08-01T11:52:09;3.88;;;1.45;;
14961;SDS011;56489;53.166;10.864;2022-08-01T11:54:49;2.00;;;1.30;;
14961;SDS011;56489;53.166;10.864;2022-08-01T11:57:19;1.58;;;1.42;;
14961;SDS011;56489;53.166;10.864;2022-08-01T12:00:02;1.10;;;1.00;;
14961;SDS011;56489;53.166;10.864;2022-08-01T12:02:40;1.58;;;1.48;;
14961;SDS011;56489;53.166;10.864;2022-08-01T12:05:10;1.08;;;0.95;;
14961;SDS011;56489;53.166;10.864;2022-08-01T12:07:41;2.28;;;1.27;;
14961;SDS011;56489;53.166;10.864;2022-08-01T12:10:10;1.83;;;1.30;;
14961;SDS011;56489;53.166;10.864;2022-08-01T12:12:51;2.28;;;1.50;;
14961;SDS011;56489;53.166;10.864;2022-08-01T12:15:23;1.77;;;1.30;;
14961;SDS011;56489;53.166;10.864;2022-08-01T12:18:04;2.50;;;1.52;;
14961;SDS011;56489;53.166;10.864;2022-08-01T12:20:33;2.83;;;1.73;;
14961;SDS011;56489;53.166;10.864;2022-08-01T12:23:03;2.03;;;1.45;;
14961;SDS011;56489;53.166;10.864;2022-08-01T12:25:34;1.23;;;1.15;;
14961;SDS011;56489;53.166;10.864;2022-08-01T12:28:03;3.72;;;1.48;;
14961;SDS011;56489;53.166;10.864;2022-08-01T12:30:31;2.92;;;1.55;;
14961;SDS011;56489;53.166;10.864;2022-08-01T12:33:02;2.15;;;1.55;;
14961;SDS011;56489;53.166;10.864;2022-08-01T12:35:31;2.90;;;1.83;;
14961;SDS011;56489;53.166;10.864;2022-08-01T12:38:00;3.08;;;1.80;;
14961;SDS011;56489;53.166;10.864;2022-08-01T12:40:30;3.90;;;2.13;;
14961;SDS011;56489;53.166;10.864;2022-08-01T12:42:59;3.92;;;2.33;;
14961;SDS011;56489;53.166;10.864;2022-08-01T12:48:22;4.35;;;2.53;;
14961;SDS011;56489;53.166;10.864;2022-08-01T12:50:50;5.18;;;2.22;;
14961;SDS011;56489;53.166;10.864;2022-08-01T12:53:18;3.00;;;2.75;;
14961;SDS011;56489;53.166;10.864;2022-08-01T12:58:23;4.55;;;3.20;;
14961;SDS011;56489;53.166;10.864;2022-08-01T13:01:03;6.95;;;2.95;;
14961;SDS011;56489;53.166;10.864;2022-08-01T13:03:31;3.92;;;3.45;;
14961;SDS011;56489;53.166;10.864;2022-08-01T13:05:59;3.00;;;2.80;;
14961;SDS011;56489;53.166;10.864;2022-08-01T13:08:30;4.38;;;3.17;;
14961;SDS011;56489;53.166;10.864;2022-08-01T13:11:02;3.97;;;2.70;;
14961;SDS011;56489;53.166;10.864;2022-08-01T13:13:38;3.97;;;2.60;;
14961;SDS011;56489;53.166;10.864;2022-08-01T13:16:07;4.43;;;3.05;;
14961;SDS011;56489;53.166;10.864;2022-08-01T13:18:50;4.40;;;2.58;;
14961;SDS011;56489;53.166;10.864;2022-08-01T13:21:21;3.85;;;2.42;;
14961;SDS011;56489;53.166;10.864;2022-08-01T13:24:09;5.82;;;3.00;;
14961;SDS011;56489;53.166;10.864;2022-08-01T13:29:18;2.58;;;2.28;;
14961;SDS011;56489;53.166;10.864;2022-08-01T13:31:47;2.90;;;1.92;;
14961;SDS011;56489;53.166;10.864;2022-08-01T13:34:14;5.93;;;3.08;;
14961;SDS011;56489;53.166;10.864;2022-08-01T13:36:41;3.28;;;1.85;;
14961;SDS011;56489;53.166;10.864;2022-08-01T13:39:14;2.05;;;1.50;;
14961;SDS011;56489;53.166;10.864;2022-08-01T13:41:59;4.45;;;1.80;;
14961;SDS011;56489;53.166;10.864;2022-08-01T13:44:26;3.42;;;1.27;;
14961;SDS011;56489;53.166;10.864;2022-08-01T13:46:52;4.50;;;1.65;;
14961;SDS011;56489;53.166;10.864;2022-08-01T13:49:19;2.20;;;1.33;;
14961;SDS011;56489;53.166;10.864;2022-08-01T13:51:48;3.42;;;1.10;;
14961;SDS011;56489;53.166;10.864;2022-08-01T13:54:16;3.67;;;1.30;;
14961;SDS011;56489;53.166;10.864;2022-08-01T13:56:43;2.15;;;1.35;;
14961;SDS011;56489;53.166;10.864;2022-08-01T13:59:10;2.50;;;1.35;;
14961;SDS011;56489;53.166;10.864;2022-08-01T14:01:36;1.35;;;1.20;;
14961;SDS011;56489;53.166;10.864;2022-08-01T14:04:03;2.78;;;1.17;;
14961;SDS011;56489;53.166;10.864;2022-08-01T14:06:31;1.67;;;1.33;;
14961;SDS011;56489;53.166;10.864;2022-08-01T14:08:58;1.35;;;1.02;;
14961;SDS011;56489;53.166;10.864;2022-08-01T14:11:26;1.77;;;1.13;;
14961;SDS011;56489;53.166;10.864;2022-08-01T14:13:55;1.48;;;1.35;;
14961;SDS011;56489;53.166;10.864;2022-08-01T14:16:22;1.40;;;1.13;;
14961;SDS011;56489;53.166;10.864;2022-08-01T14:18:49;2.88;;;1.13;;
14961;SDS011;56489;53.166;10.864;2022-08-01T14:21:16;2.08;;;1.30;;
14961;SDS011;56489;53.166;10.864;2022-08-01T14:23:43;1.30;;;1.00;;
14961;SDS011;56489;53.166;10.864;2022-08-01T14:26:09;2.85;;;1.35;;
14961;SDS011;56489;53.166;10.864;2022-08-01T14:28:38;3.78;;;1.33;;
14961;SDS011;56489;53.166;10.864;2022-08-01T14:31:05;2.13;;;1.30;;
14961;SDS011;56489;53.166;10.864;2022-08-01T14:33:32;2.00;;;1.23;;
14961;SDS011;56489;53.166;10.864;2022-08-01T14:35:59;2.10;;;1.30;;
14961;SDS011;56489;53.166;10.864;2022-08-01T14:38:46;1.52;;;1.20;;
14961;SDS011;56489;53.166;10.864;2022-08-01T14:41:14;1.55;;;1.17;;
14961;SDS011;56489;53.166;10.864;2022-08-01T14:43:41;1.45;;;0.93;;
14961;SDS011;56489;53.166;10.864;2022-08-01T14:46:07;3.00;;;1.48;;
14961;SDS011;56489;53.166;10.864;2022-08-01T14:48:35;2.42;;;1.08;;
14961;SDS011;56489;53.166;10.864;2022-08-01T14:51:02;1.98;;;1.20;;
14961;SDS011;56489;53.166;10.864;2022-08-01T14:53:30;3.67;;;1.10;;
14961;SDS011;56489;53.166;10.864;2022-08-01T14:56:01;1.85;;;1.00;;
14961;SDS011;56489;53.166;10.864;2022-08-01T14:58:29;1.65;;;1.08;;
14961;SDS011;56489;53.166;10.864;2022-08-01T15:00:55;4.82;;;1.63;;
14961;SDS011;56489;53.166;10.864;2022-08-01T15:03:24;2.20;;;1.40;;
14961;SDS011;56489;53.166;10.864;2022-08-01T15:05:51;1.92;;;1.70;;
14961;SDS011;56489;53.166;10.864;2022-08-01T15:08:18;1.45;;;0.90;;
14961;SDS011;56489;53.166;10.864;2022-08-01T15:10:45;1.10;;;0.90;;
14961;SDS011;56489;53.166;10.864;2022-08-01T15:13:12;1.95;;;1.20;;
14961;SDS011;56489;53.166;10.864;2022-08-01T15:15:38;3.20;;;1.10;;
14961;SDS011;56489;53.166;10.864;2022-08-01T15:18:05;1.30;;;1.20;;
14961;SDS011;56489;53.166;10.864;2022-08-01T15:20:31;2.88;;;1.30;;
14961;SDS011;56489;53.166;10.864;2022-08-01T15:22:59;1.60;;;1.10;;
14961;SDS011;56489;53.166;10.864;2022-08-01T15:25:25;1.75;;;1.15;;
14961;SDS011;56489;53.166;10.864;2022-08-01T15:28:08;2.15;;;1.13;;
14961;SDS011;56489;53.166;10.864;2022-08-01T15:30:35;2.13;;;0.82;;
14961;SDS011;56489;53.166;10.864;2022-08-01T15:33:02;1.95;;;1.10;;
14961;SDS011;56489;53.166;10.864;2022-08-01T15:35:29;2.13;;;1.00;;
14961;SDS011;56489;53.166;10.864;2022-08-01T15:37:55;1.92;;;1.08;;